createdAt,value
2019-05-20T00:01:05.535Z,100.00
2019-05-20T00:04:09.830Z,100.00
2019-05-20T00:07:14.111Z,100.00
2019-05-20T00:10:18.423Z,100.00
2019-05-20T00:13:22.711Z,100.00
2019-05-20T00:16:27.011Z,100.00
2019-05-20T00:19:31.305Z,100.00
2019-05-20T00:22:35.583Z,100.00
2019-05-20T00:25:39.867Z,100.00
2019-05-20T00:28:44.158Z,100.00
2019-05-20T00:31:48.427Z,100.00
2019-05-20T00:34:52.713Z,100.00
2019-05-20T00:37:56.999Z,100.00
2019-05-20T00:41:01.278Z,100.00
2019-05-20T00:44:05.674Z,100.00
2019-05-20T00:47:10.614Z,100.00
2019-05-20T00:50:16.431Z,100.00
2019-05-20T00:53:20.704Z,100.00
2019-05-20T00:56:24.982Z,100.00
2019-05-20T00:59:29.266Z,100.00
2019-05-20T01:02:33.577Z,100.00
2019-05-20T01:05:37.865Z,100.00
2019-05-20T01:08:42.177Z,100.00
2019-05-20T01:11:46.463Z,100.00
2019-05-20T01:14:50.744Z,100.00
2019-05-20T01:17:55.048Z,100.00
2019-05-20T01:21:00.092Z,100.00
2019-05-20T01:24:04.406Z,100.00
2019-05-20T01:27:08.685Z,100.00
2019-05-20T01:30:13.372Z,100.00
2019-05-20T01:33:17.676Z,100.00
2019-05-20T01:36:23.058Z,100.00
2019-05-20T01:39:27.378Z,100.00
2019-05-20T01:42:31.666Z,100.00
2019-05-20T01:45:38.252Z,100.00
2019-05-20T01:48:42.525Z,100.00
2019-05-20T01:51:46.792Z,100.00
2019-05-20T01:54:51.080Z,100.00
2019-05-20T01:57:55.356Z,100.00
2019-05-20T02:00:59.739Z,100.00
2019-05-20T02:04:04.037Z,100.00
2019-05-20T02:07:08.339Z,100.00
2019-05-20T02:10:12.940Z,100.00
2019-05-20T02:13:17.226Z,100.00
2019-05-20T02:16:21.831Z,100.00
2019-05-20T02:19:26.132Z,100.00
2019-05-20T02:22:30.412Z,100.00
2019-05-20T02:25:34.708Z,100.00
2019-05-20T02:28:39.011Z,100.00
2019-05-20T02:31:43.288Z,100.00
2019-05-20T02:34:47.566Z,100.00
2019-05-20T02:37:51.890Z,100.00
2019-05-20T02:40:56.195Z,100.00
2019-05-20T02:44:00.492Z,100.00
2019-05-20T02:47:04.874Z,100.00
2019-05-20T02:50:09.384Z,100.00
2019-05-20T02:53:16.142Z,100.00
2019-05-20T02:56:20.431Z,100.00
2019-05-20T02:59:24.712Z,100.00
2019-05-20T03:02:29.000Z,100.00
2019-05-20T03:05:33.288Z,100.00
2019-05-20T03:08:37.564Z,100.00
2019-05-20T03:11:41.881Z,100.00
2019-05-20T03:14:46.234Z,100.00
2019-05-20T03:17:50.488Z,100.00
2019-05-20T03:20:54.769Z,100.00
2019-05-20T03:23:59.062Z,100.00
2019-05-20T03:27:04.816Z,100.00
2019-05-20T03:30:09.705Z,100.00
2019-05-20T03:33:13.984Z,100.00
2019-05-20T03:36:18.264Z,100.00
2019-05-20T03:39:22.541Z,100.00
2019-05-20T03:42:26.801Z,100.00
2019-05-20T03:45:31.071Z,100.00
2019-05-20T03:48:35.368Z,100.00
2019-05-20T03:51:39.648Z,100.00
2019-05-20T03:54:43.928Z,100.00
2019-05-20T03:57:48.203Z,100.00
2019-05-20T04:00:52.485Z,100.00
2019-05-20T04:03:57.776Z,100.00
2019-05-20T04:07:02.068Z,100.00
2019-05-20T04:10:06.891Z,100.00
2019-05-20T04:13:11.296Z,100.00
2019-05-20T04:16:15.575Z,100.00
2019-05-20T04:19:19.877Z,100.00
2019-05-20T04:22:24.185Z,100.00
2019-05-20T04:25:28.474Z,100.00
2019-05-20T04:28:32.785Z,100.00
2019-05-20T04:31:37.108Z,100.00
2019-05-20T04:34:41.489Z,100.00
2019-05-20T04:37:45.785Z,100.00
2019-05-20T04:40:50.125Z,100.00
2019-05-20T04:43:54.830Z,100.00
2019-05-20T04:46:59.129Z,100.00
2019-05-20T04:50:03.497Z,100.00
2019-05-20T04:53:07.788Z,100.00
2019-05-20T04:56:12.090Z,100.00
2019-05-20T04:59:16.409Z,100.00
2019-05-20T05:02:20.704Z,100.00
2019-05-20T05:05:37.209Z,100.00
2019-05-20T05:08:31.154Z,100.00
2019-05-20T05:11:35.574Z,100.00
2019-05-20T05:14:39.856Z,100.00
2019-05-20T05:17:44.158Z,100.00
2019-05-20T05:20:48.573Z,100.00
2019-05-20T05:23:59.271Z,100.00
2019-05-20T05:26:59.082Z,100.00
2019-05-20T05:30:05.125Z,100.00
2019-05-20T05:33:09.443Z,100.00
2019-05-20T05:36:15.618Z,100.00
2019-05-20T05:39:20.017Z,100.00
2019-05-20T05:42:25.440Z,100.00
2019-05-20T05:45:31.569Z,100.00
2019-05-20T05:48:35.892Z,100.00
2019-05-20T05:51:40.702Z,100.00
2019-05-20T05:54:45.242Z,100.00
2019-05-20T05:57:49.802Z,100.00
2019-05-20T06:00:57.065Z,100.00
2019-05-20T06:04:01.351Z,100.00
2019-05-20T06:07:05.725Z,100.00
2019-05-20T06:10:10.383Z,100.00
2019-05-20T06:13:14.698Z,100.00
2019-05-20T06:16:35.277Z,100.00
2019-05-20T06:19:25.099Z,100.00
2019-05-20T06:22:29.622Z,100.00
2019-05-20T06:25:34.042Z,100.00
2019-05-20T06:28:38.323Z,100.00
2019-05-20T06:31:42.655Z,100.00
2019-05-20T06:34:47.057Z,99.44
2019-05-20T06:37:55.402Z,99.62
2019-05-20T06:40:59.701Z,99.63
2019-05-20T06:44:05.238Z,99.39
2019-05-20T06:47:11.169Z,99.07
2019-05-20T06:50:16.034Z,99.41
2019-05-20T06:53:20.641Z,99.31
2019-05-20T06:56:25.088Z,99.19
2019-05-20T06:59:29.439Z,97.94
2019-05-20T07:02:33.734Z,97.45
2019-05-20T07:05:38.392Z,98.02
2019-05-20T07:08:44.128Z,97.58
2019-05-20T07:11:52.702Z,98.04
2019-05-20T07:14:54.499Z,97.30
2019-05-20T07:17:58.826Z,96.81
2019-05-20T07:21:03.223Z,97.68
2019-05-20T07:24:07.624Z,97.15
2019-05-20T07:27:12.708Z,97.06
2019-05-20T07:30:18.728Z,96.89
2019-05-20T07:33:24.080Z,97.20
2019-05-20T07:36:28.587Z,96.77
2019-05-20T07:39:33.076Z,95.70
2019-05-20T07:42:37.431Z,94.80
2019-05-20T07:45:42.340Z,95.60
2019-05-20T07:48:47.468Z,94.68
2019-05-20T07:51:52.453Z,93.90
2019-05-20T07:54:58.588Z,93.56
2019-05-20T07:58:07.458Z,93.46
2019-05-20T08:01:12.095Z,92.04
2019-05-20T08:04:16.581Z,90.73
2019-05-20T08:07:29.813Z,89.33
2019-05-20T08:10:26.939Z,90.46
2019-05-20T08:13:31.386Z,90.09
2019-05-20T08:16:35.819Z,90.01
2019-05-20T08:19:40.119Z,89.18
2019-05-20T08:22:44.610Z,89.47
2019-05-20T08:25:49.257Z,88.58
2019-05-20T08:28:53.811Z,88.65
2019-05-20T08:31:59.979Z,88.56
2019-05-20T08:35:04.520Z,86.94
2019-05-20T08:38:10.953Z,84.63
2019-05-20T08:41:15.465Z,84.33
2019-05-20T08:44:19.755Z,83.67
2019-05-20T08:47:24.032Z,85.15
2019-05-20T08:50:28.351Z,84.06
2019-05-20T08:53:34.134Z,84.75
2019-05-20T08:56:38.443Z,84.60
2019-05-20T08:59:43.961Z,84.83
2019-05-20T09:02:48.358Z,84.39
2019-05-20T09:05:52.823Z,84.30
2019-05-20T09:08:57.130Z,85.44
2019-05-20T09:12:01.447Z,86.40
2019-05-20T09:15:06.340Z,86.18
2019-05-20T09:18:10.659Z,85.95
2019-05-20T09:21:15.272Z,84.20
2019-05-20T09:24:19.912Z,82.77
2019-05-20T09:27:24.252Z,81.79
2019-05-20T09:30:28.872Z,80.92
2019-05-20T09:33:33.277Z,81.77
2019-05-20T09:36:38.683Z,81.67
2019-05-20T09:39:42.976Z,82.44
2019-05-20T09:42:47.315Z,83.05
2019-05-20T09:46:06.591Z,82.61
2019-05-20T09:48:58.235Z,81.83
2019-05-20T09:52:02.548Z,81.58
2019-05-20T09:55:07.114Z,80.54
2019-05-20T09:58:11.658Z,82.10
2019-05-20T10:01:15.956Z,83.29
2019-05-20T10:04:20.317Z,81.32
2019-05-20T10:07:24.740Z,82.93
2019-05-20T10:10:29.120Z,83.48
2019-05-20T10:13:33.663Z,83.54
2019-05-20T10:16:37.980Z,81.57
2019-05-20T10:19:42.482Z,79.83
2019-05-20T10:22:46.794Z,78.50
2019-05-20T10:25:51.216Z,80.04
2019-05-20T10:28:55.518Z,81.16
2019-05-20T10:31:59.820Z,81.83
2019-05-20T10:35:05.539Z,79.86
2019-05-20T10:38:09.877Z,79.74
2019-05-20T10:41:14.305Z,79.63
2019-05-20T10:44:18.894Z,80.52
2019-05-20T10:47:23.202Z,79.80
2019-05-20T10:50:27.517Z,80.31
2019-05-20T10:53:31.839Z,79.28
2019-05-20T10:56:38.052Z,79.30
2019-05-20T10:59:42.336Z,78.90
2019-05-20T11:02:46.725Z,80.81
2019-05-20T11:05:54.118Z,79.28
2019-05-20T11:09:13.054Z,80.28
2019-05-20T11:12:07.118Z,79.59
2019-05-20T11:15:12.901Z,79.23
2019-05-20T11:18:17.190Z,78.17
2019-05-20T11:21:21.570Z,77.22
2019-05-20T11:24:25.901Z,77.75
2019-05-20T11:27:30.287Z,76.84
2019-05-20T11:30:34.576Z,74.49
2019-05-20T11:33:38.854Z,73.77
2019-05-20T11:36:43.197Z,75.72
2019-05-20T11:39:48.801Z,75.41
2019-05-20T11:42:54.319Z,74.92
2019-05-20T11:45:58.719Z,75.11
2019-05-20T11:49:03.053Z,74.68
2019-05-20T11:52:07.350Z,73.25
2019-05-20T11:55:12.136Z,73.21
2019-05-20T11:58:16.861Z,73.19
2019-05-20T12:01:21.454Z,73.55
2019-05-20T12:04:25.827Z,73.54
2019-05-20T12:07:30.093Z,72.56
2019-05-20T12:10:34.366Z,70.97
2019-05-20T12:13:38.664Z,71.70
2019-05-20T12:16:42.971Z,71.76
2019-05-20T12:19:47.238Z,72.71
2019-05-20T12:22:51.550Z,69.37
2019-05-20T12:25:55.945Z,70.76
2019-05-20T12:29:00.308Z,71.03
2019-05-20T12:32:04.686Z,71.77
2019-05-20T12:35:09.359Z,72.15
2019-05-20T12:38:13.850Z,69.97
2019-05-20T12:41:18.160Z,70.17
2019-05-20T12:44:22.496Z,71.53
2019-05-20T12:47:26.882Z,70.69
2019-05-20T12:50:31.180Z,69.08
2019-05-20T12:53:35.528Z,69.33
2019-05-20T12:56:39.849Z,69.82
2019-05-20T12:59:44.125Z,69.84
2019-05-20T13:02:48.505Z,68.79
2019-05-20T13:05:52.785Z,68.64
2019-05-20T13:08:57.123Z,69.97
2019-05-20T13:12:02.340Z,69.29
2019-05-20T13:15:06.790Z,68.85
2019-05-20T13:18:11.127Z,68.91
2019-05-20T13:21:15.399Z,66.18
2019-05-20T13:24:19.726Z,66.97
2019-05-20T13:27:24.014Z,67.55
2019-05-20T13:30:28.489Z,68.26
2019-05-20T13:33:32.779Z,67.94
2019-05-20T13:36:37.044Z,67.55
2019-05-20T13:39:41.319Z,66.50
2019-05-20T13:42:45.585Z,66.36
2019-05-20T13:45:49.904Z,67.36
2019-05-20T13:48:55.293Z,64.62
2019-05-20T13:51:59.599Z,66.28
2019-05-20T13:55:03.913Z,65.96
2019-05-20T13:58:08.215Z,66.49
2019-05-20T14:01:12.510Z,64.39
2019-05-20T14:04:16.781Z,65.51
2019-05-20T14:07:21.083Z,66.76
2019-05-20T14:10:25.354Z,66.65
2019-05-20T14:13:29.664Z,65.99
2019-05-20T14:16:33.953Z,65.24
2019-05-20T14:19:38.232Z,65.28
2019-05-20T14:22:42.604Z,64.29
2019-05-20T14:25:47.121Z,64.43
2019-05-20T14:28:51.423Z,64.60
2019-05-20T14:31:55.777Z,63.61
2019-05-20T14:35:00.027Z,62.96
2019-05-20T14:38:04.295Z,63.17
2019-05-20T14:41:21.159Z,63.46
2019-05-20T14:44:14.584Z,64.33
2019-05-20T14:47:18.905Z,63.35
2019-05-20T14:50:23.197Z,63.11
2019-05-20T14:53:27.500Z,63.66
2019-05-20T14:56:31.858Z,63.65
2019-05-20T14:59:36.163Z,63.68
2019-05-20T15:02:40.438Z,60.65
2019-05-20T15:05:44.770Z,60.99
2019-05-20T15:08:49.116Z,61.11
2019-05-20T15:11:53.365Z,60.93
2019-05-20T15:14:57.664Z,61.32
2019-05-20T15:18:02.024Z,60.32
2019-05-20T15:21:06.269Z,60.45
2019-05-20T15:24:10.619Z,55.59
2019-05-20T15:27:16.155Z,57.30
2019-05-20T15:30:21.136Z,56.02
2019-05-20T15:33:25.459Z,53.46
2019-05-20T15:36:29.940Z,53.65
2019-05-20T15:39:34.343Z,53.28
2019-05-20T15:42:38.628Z,52.07
2019-05-20T15:45:42.934Z,50.35
2019-05-20T15:48:47.212Z,48.63
2019-05-20T15:51:51.509Z,48.94
2019-05-20T15:54:55.808Z,49.98
2019-05-20T15:58:00.140Z,49.36
2019-05-20T16:01:04.502Z,48.03
2019-05-20T16:04:10.041Z,47.97
2019-05-20T16:07:16.172Z,48.39
2019-05-20T16:10:21.470Z,48.19
2019-05-20T16:13:25.793Z,47.56
2019-05-20T16:16:30.119Z,47.18
2019-05-20T16:19:34.433Z,48.13
2019-05-20T16:22:38.763Z,47.84
2019-05-20T16:25:43.065Z,48.35
2019-05-20T16:28:47.525Z,48.97
2019-05-20T16:31:52.040Z,49.33
2019-05-20T16:34:56.339Z,47.50
2019-05-20T16:38:00.620Z,48.23
2019-05-20T16:41:04.940Z,48.46
2019-05-20T16:44:09.220Z,49.42
2019-05-20T16:47:13.622Z,49.92
2019-05-20T16:50:18.882Z,49.51
2019-05-20T16:53:23.447Z,50.06
2019-05-20T16:56:28.010Z,48.01
2019-05-20T16:59:32.360Z,46.98
2019-05-20T17:02:36.663Z,49.11
2019-05-20T17:05:40.960Z,50.71
2019-05-20T17:08:45.275Z,49.36
2019-05-20T17:11:49.575Z,49.89
2019-05-20T17:14:53.919Z,48.80
2019-05-20T17:17:58.248Z,50.84
2019-05-20T17:21:02.727Z,51.67
2019-05-20T17:24:07.020Z,53.69
2019-05-20T17:27:11.299Z,56.04
2019-05-20T17:30:18.075Z,55.79
2019-05-20T17:33:22.490Z,56.13
2019-05-20T17:36:26.772Z,56.09
2019-05-20T17:39:31.149Z,57.43
2019-05-20T17:42:35.416Z,57.86
2019-05-20T17:45:41.355Z,58.53
2019-05-20T17:48:45.658Z,59.18
2019-05-20T17:51:49.955Z,60.16
2019-05-20T17:54:54.260Z,60.76
2019-05-20T17:57:58.667Z,60.75
2019-05-20T18:01:14.920Z,61.60
2019-05-20T18:04:11.836Z,62.69
2019-05-20T18:07:18.576Z,61.59
2019-05-20T18:10:25.205Z,62.25
2019-05-20T18:13:29.539Z,63.38
2019-05-20T18:16:33.866Z,64.38
2019-05-20T18:19:38.167Z,64.71
2019-05-20T18:22:44.164Z,65.05
2019-05-20T18:25:48.458Z,65.50
2019-05-20T18:28:52.778Z,66.00
2019-05-20T18:31:57.263Z,66.26
2019-05-20T18:35:03.488Z,66.68
2019-05-20T18:38:07.790Z,66.93
2019-05-20T18:41:12.073Z,67.08
2019-05-20T18:44:16.398Z,67.64
2019-05-20T18:47:20.728Z,68.29
2019-05-20T18:50:25.019Z,68.57
2019-05-20T18:53:29.316Z,68.81
2019-05-20T18:56:34.906Z,68.17
2019-05-20T18:59:39.261Z,68.15
2019-05-20T19:02:45.328Z,68.84
2019-05-20T19:05:49.642Z,69.43
2019-05-20T19:08:54.161Z,69.76
2019-05-20T19:11:58.485Z,70.15
2019-05-20T19:15:03.030Z,70.55
2019-05-20T19:18:08.391Z,70.84
2019-05-20T19:21:12.705Z,71.42
2019-05-20T19:24:17.649Z,71.59
2019-05-20T19:27:22.418Z,72.01
2019-05-20T19:30:26.817Z,72.07
2019-05-20T19:33:31.213Z,72.46
2019-05-20T19:36:35.698Z,72.86
2019-05-20T19:39:39.989Z,73.32
2019-05-20T19:42:46.079Z,73.54
2019-05-20T19:45:52.215Z,73.82
2019-05-20T19:48:59.749Z,74.09
2019-05-20T19:52:04.127Z,74.49
2019-05-20T19:55:08.672Z,74.72
2019-05-20T19:58:14.842Z,75.07
2019-05-20T20:01:19.143Z,75.55
2019-05-20T20:04:23.463Z,75.79
2019-05-20T20:07:28.851Z,76.13
2019-05-20T20:10:33.221Z,76.42
2019-05-20T20:13:38.601Z,76.64
2019-05-20T20:16:42.891Z,76.98
2019-05-20T20:19:47.399Z,77.33
2019-05-20T20:22:51.703Z,77.78
2019-05-20T20:25:56.103Z,78.04
2019-05-20T20:29:00.395Z,78.49
2019-05-20T20:32:04.809Z,78.75
2019-05-20T20:35:09.526Z,79.01
2019-05-20T20:38:13.814Z,79.33
2019-05-20T20:41:18.211Z,79.36
2019-05-20T20:44:22.477Z,79.68
2019-05-20T20:47:40.860Z,79.78
2019-05-20T20:50:32.844Z,80.27
2019-05-20T20:53:37.234Z,80.68
2019-05-20T20:56:41.612Z,80.91
2019-05-20T20:59:50.244Z,81.07
2019-05-20T21:02:54.012Z,81.22
2019-05-20T21:05:59.478Z,81.49
2019-05-20T21:09:05.521Z,81.62
2019-05-20T21:12:09.829Z,81.74
2019-05-20T21:15:14.446Z,81.68
2019-05-20T21:18:19.595Z,81.80
2019-05-20T21:21:23.925Z,82.00
2019-05-20T21:24:28.243Z,82.29
2019-05-20T21:27:32.578Z,82.52
2019-05-20T21:30:36.843Z,82.65
2019-05-20T21:33:41.206Z,82.73
2019-05-20T21:36:48.102Z,82.86
2019-05-20T21:39:55.819Z,82.96
2019-05-20T21:43:02.374Z,82.95
2019-05-20T21:46:09.228Z,83.10
2019-05-20T21:49:15.914Z,83.19
2019-05-20T21:52:20.796Z,83.50
2019-05-20T21:55:25.419Z,83.83
2019-05-20T21:58:30.034Z,83.99
2019-05-20T22:01:34.578Z,84.13
2019-05-20T22:04:39.116Z,84.30
2019-05-20T22:07:43.690Z,84.50
2019-05-20T22:10:48.198Z,84.68
2019-05-20T22:13:52.710Z,84.80
2019-05-20T22:16:58.903Z,84.96
2019-05-20T22:20:06.593Z,85.10
2019-05-20T22:23:25.053Z,85.24
2019-05-20T22:26:31.211Z,85.43
2019-05-20T22:29:36.237Z,85.59
2019-05-20T22:32:41.908Z,85.83
2019-05-20T22:35:51.222Z,85.96
2019-05-20T22:38:58.207Z,86.12
2019-05-20T22:42:05.232Z,86.18
2019-05-20T22:45:12.350Z,86.30
2019-05-20T22:48:17.341Z,86.39
2019-05-20T22:51:21.613Z,86.54
2019-05-20T22:54:26.248Z,86.54
2019-05-20T22:57:30.717Z,86.50
2019-05-20T23:00:35.122Z,86.55
2019-05-20T23:03:39.445Z,86.58
2019-05-20T23:06:45.178Z,86.63
2019-05-20T23:09:49.695Z,86.78
2019-05-20T23:12:53.984Z,86.85
2019-05-20T23:15:58.256Z,86.89
2019-05-20T23:19:02.547Z,86.87
2019-05-20T23:22:06.833Z,86.89
2019-05-20T23:25:12.583Z,87.16
2019-05-20T23:28:18.046Z,86.67
2019-05-20T23:31:22.360Z,87.06
2019-05-20T23:34:27.491Z,87.29
2019-05-20T23:37:33.641Z,87.50
2019-05-20T23:40:37.911Z,87.53
2019-05-20T23:43:42.187Z,87.43
2019-05-20T23:46:46.475Z,87.79
2019-05-20T23:49:51.144Z,87.52
2019-05-20T23:52:57.780Z,87.72
2019-05-20T23:56:02.067Z,87.82
2019-05-20T23:59:06.331Z,87.71
